Time;durP1;ratioP1;P1;durP2;ratioP2;P2;SDS_P1;SDS_P2;PMS_P1;PMS_P2;Temp;Humidity;BMP_temperature;BMP_pressure;BME280_temperature;BME280_humidity;BME280_pressure;Samples;Min_cycle;Max_cycle;Signal;HPM_P1;HPM_P2
2023/01/24 00:00:36;;;;;;;10.77;6.73;;;4.50;1.00;;;;;;5034817;28;20548;-76
2023/01/24 00:03:03;;;;;;;11.03;7.30;;;4.60;1.00;;;;;;5030812;28;20441;-76
2023/01/24 00:05:28;;;;;;;15.77;7.70;;;4.60;1.00;;;;;;5028958;28;20189;-76
2023/01/24 00:07:54;;;;;;;12.27;7.60;;;4.60;1.00;;;;;;5029093;28;20443;-76
2023/01/24 00:10:19;;;;;;;11.80;6.70;;;4.70;1.00;;;;;;5028970;28;20181;-76
2023/01/24 00:12:45;;;;;;;12.30;7.00;;;4.60;1.00;;;;;;5029186;28;20719;-77
2023/01/24 00:15:10;;;;;;;9.63;6.70;;;4.60;1.00;;;;;;5028066;28;20206;-74
2023/01/24 00:17:36;;;;;;;10.63;6.93;;;4.50;1.00;;;;;;5024775;28;20316;-76
2023/01/24 00:20:05;;;;;;;11.33;7.23;;;4.60;1.00;;;;;;5029209;28;20182;-76
2023/01/24 00:22:31;;;;;;;10.90;6.73;;;4.60;1.00;;;;;;5029064;28;20553;-76
2023/01/24 00:24:57;;;;;;;10.43;7.40;;;4.60;1.00;;;;;;5029918;28;20429;-76
2023/01/24 00:27:22;;;;;;;9.77;6.90;;;4.80;1.00;;;;;;5029504;28;20436;-76
2023/01/24 00:29:48;;;;;;;15.73;7.20;;;4.60;1.00;;;;;;5029914;28;20260;-76
2023/01/24 00:32:13;;;;;;;13.50;7.77;;;4.60;1.00;;;;;;5028508;28;20220;-74
2023/01/24 00:34:39;;;;;;;9.53;6.63;;;4.60;1.00;;;;;;5028631;28;20655;-75
2023/01/24 00:37:04;;;;;;;11.40;7.30;;;4.50;1.00;;;;;;5029142;28;20206;-75
2023/01/24 00:39:30;;;;;;;13.00;8.07;;;4.40;1.00;;;;;;5029192;28;20174;-76
2023/01/24 00:41:55;;;;;;;10.20;6.87;;;4.50;1.00;;;;;;5028515;28;20680;-76
2023/01/24 00:44:21;;;;;;;10.80;7.10;;;4.60;1.00;;;;;;5027920;28;20209;-76
2023/01/24 00:46:46;;;;;;;11.83;7.70;;;4.60;1.00;;;;;;5027995;28;20234;-75
2023/01/24 00:49:12;;;;;;;10.53;7.40;;;4.60;1.00;;;;;;5029310;28;20656;-75
2023/01/24 00:51:37;;;;;;;12.60;7.73;;;4.60;1.00;;;;;;5037351;28;20197;-76
2023/01/24 00:54:03;;;;;;;12.33;7.00;;;4.60;1.00;;;;;;5029528;28;20182;-76
2023/01/24 00:56:28;;;;;;;14.83;8.30;;;4.70;1.00;;;;;;5029093;28;20730;-75
2023/01/24 00:58:54;;;;;;;12.90;7.43;;;4.60;1.00;;;;;;5028921;28;20182;-76
2023/01/24 01:01:20;;;;;;;13.57;7.50;;;4.70;1.00;;;;;;5029155;28;20207;-75
2023/01/24 01:03:46;;;;;;;9.60;7.17;;;4.70;1.00;;;;;;5029142;28;20251;-75
2023/01/24 01:06:15;;;;;;;11.50;7.00;;;4.70;1.00;;;;;;5027505;28;20457;-76
2023/01/24 01:08:41;;;;;;;11.33;7.60;;;4.60;1.00;;;;;;5019443;28;20240;-76
2023/01/24 01:11:07;;;;;;;12.30;7.93;;;4.60;1.00;;;;;;5023784;28;20457;-76
2023/01/24 01:13:33;;;;;;;13.63;8.17;;;4.70;1.00;;;;;;5029074;28;20432;-76
2023/01/24 01:16:07;;;;;;;12.73;7.50;;;4.70;1.00;;;;;;5027180;28;20221;-75
2023/01/24 01:18:33;;;;;;;12.20;7.03;;;4.70;1.00;;;;;;5023257;28;20273;-76
2023/01/24 01:20:59;;;;;;;11.33;7.30;;;4.80;1.00;;;;;;5027465;28;21368;-76
2023/01/24 01:23:25;;;;;;;11.00;6.93;;;4.70;1.00;;;;;;5029419;28;20432;-76
2023/01/24 01:25:51;;;;;;;11.30;7.60;;;4.70;1.00;;;;;;5027334;28;20182;-73
2023/01/24 01:28:16;;;;;;;12.53;7.93;;;4.70;1.00;;;;;;5026302;28;20521;-75
2023/01/24 01:30:42;;;;;;;11.60;7.90;;;4.80;1.00;;;;;;5028336;28;20181;-76
2023/01/24 01:33:07;;;;;;;11.27;7.80;;;4.70;1.00;;;;;;5027162;28;20213;-77
2023/01/24 01:35:33;;;;;;;10.90;6.93;;;4.80;1.00;;;;;;5028109;28;20211;-74
2023/01/24 01:37:58;;;;;;;11.03;7.60;;;4.80;1.00;;;;;;5026925;28;20268;-76
2023/01/24 01:40:24;;;;;;;10.53;7.03;;;4.80;1.00;;;;;;5027623;28;20189;-76
2023/01/24 01:42:55;;;;;;;11.73;7.93;;;4.80;1.00;;;;;;5028652;28;20701;-75
2023/01/24 01:45:42;;;;;;;14.40;8.17;;;4.80;1.00;;;;;;5027228;28;20251;-76
2023/01/24 01:48:25;;;;;;;11.00;7.53;;;4.70;1.00;;;;;;5028924;28;20468;-76
2023/01/24 01:50:53;;;;;;;11.00;7.03;;;4.80;1.00;;;;;;5029020;28;20420;-76
2023/01/24 01:53:21;;;;;;;12.53;8.00;;;4.80;1.00;;;;;;5032528;28;20436;-75
2023/01/24 01:55:54;;;;;;;11.37;7.50;;;4.80;1.00;;;;;;5031606;28;20452;-76
2023/01/24 01:58:20;;;;;;;12.43;7.57;;;4.70;1.00;;;;;;5032379;28;21020;-75
2023/01/24 02:00:49;;;;;;;11.47;6.80;;;4.70;1.00;;;;;;5023551;28;20455;-76
2023/01/24 02:03:37;;;;;;;12.00;7.70;;;4.70;1.00;;;;;;5032968;28;20180;-76
2023/01/24 02:06:04;;;;;;;11.23;7.37;;;4.60;1.00;;;;;;5015437;28;20455;-75
2023/01/24 02:08:30;;;;;;;9.73;6.50;;;4.70;1.00;;;;;;5029561;28;20558;-76
2023/01/24 02:13:43;;;;;;;19.80;8.00;;;4.60;1.00;;;;;;5032967;28;20698;-76
2023/01/24 02:16:13;;;;;;;12.83;8.00;;;4.60;1.00;;;;;;5029878;28;20905;-74
2023/01/24 02:18:40;;;;;;;14.63;8.30;;;4.60;1.00;;;;;;5032622;28;20571;-75
2023/01/24 02:21:09;;;;;;;13.97;8.37;;;4.70;1.00;;;;;;5031563;28;20463;-76
2023/01/24 02:24:04;;;;;;;12.00;7.70;;;4.70;1.00;;;;;;5031518;28;20447;-76
2023/01/24 02:26:30;;;;;;;10.80;7.00;;;4.70;1.00;;;;;;5029552;28;20439;-76
2023/01/24 02:29:08;;;;;;;13.33;8.00;;;4.70;1.00;;;;;;5030684;28;20432;-76
2023/01/24 02:32:14;;;;;;;15.90;8.50;;;4.70;1.00;;;;;;5032312;28;21001;-75
2023/01/24 02:34:40;;;;;;;12.43;7.80;;;4.60;1.00;;;;;;4990631;28;20456;-75
2023/01/24 02:37:11;;;;;;;10.07;6.83;;;4.60;1.00;;;;;;5009185;28;20518;-76
2023/01/24 02:39:46;;;;;;;11.67;7.33;;;4.50;1.00;;;;;;5021423;28;20214;-76
2023/01/24 02:42:14;;;;;;;11.80;7.50;;;4.50;1.00;;;;;;5031851;28;20869;-76
2023/01/24 02:44:46;;;;;;;11.17;7.30;;;4.60;1.00;;;;;;5031977;28;20487;-76
2023/01/24 02:47:12;;;;;;;12.53;8.00;;;4.60;1.00;;;;;;5043255;28;20452;-75
2023/01/24 02:49:37;;;;;;;11.20;7.07;;;4.60;1.00;;;;;;5032278;28;20511;-76
2023/01/24 02:54:47;;;;;;;11.43;6.60;;;4.50;1.00;;;;;;5031881;28;20197;-75
2023/01/24 02:59:57;;;;;;;14.53;7.73;;;4.50;1.00;;;;;;5032390;28;20193;-75
2023/01/24 03:02:22;;;;;;;11.53;7.33;;;4.50;1.00;;;;;;5031445;28;20459;-74
2023/01/24 03:04:48;;;;;;;12.67;7.43;;;4.50;1.00;;;;;;5031258;28;20177;-74
2023/01/24 03:07:13;;;;;;;11.00;7.13;;;5.70;1.00;;;;;;5029584;28;20182;-74
2023/01/24 03:09:45;;;;;;;10.23;6.77;;;4.50;1.00;;;;;;5030346;28;20186;-75
2023/01/24 03:36:54;;;;;;;13.87;7.30;;;4.50;1.00;;;;;;5029118;28;20537;-76
2023/01/24 03:42:03;;;;;;;11.23;7.23;;;4.50;1.00;;;;;;5027922;28;20200;-76
2023/01/24 03:44:29;;;;;;;10.03;7.00;;;4.50;1.00;;;;;;5028855;28;20527;-76
2023/01/24 03:46:54;;;;;;;10.70;7.10;;;4.40;1.00;;;;;;5029623;28;20177;-76
2023/01/24 03:54:48;;;;;;;13.60;6.90;;;4.50;1.00;;;;;;5027334;28;20443;-75
2023/01/24 03:57:13;;;;;;;11.43;7.27;;;4.50;1.00;;;;;;5030904;28;20830;-72
2023/01/24 03:59:39;;;;;;;11.27;7.30;;;4.50;1.00;;;;;;5028193;28;20182;-75
2023/01/24 04:02:04;;;;;;;11.33;7.40;;;4.50;1.00;;;;;;5030571;28;20208;-74
2023/01/24 04:05:12;;;;;;;9.90;6.97;;;4.50;1.00;;;;;;5026953;28;20202;-75
2023/01/24 04:07:15;;;;;;;12.47;7.80;;;4.50;1.00;;;;;;5030525;28;20260;-75
2023/01/24 04:09:41;;;;;;;12.70;7.80;;;4.60;1.00;;;;;;5030595;28;20869;-75
2023/01/24 04:12:06;;;;;;;15.20;8.17;;;4.60;1.00;;;;;;5030172;28;20208;-75
2023/01/24 04:14:32;;;;;;;14.40;9.20;;;4.50;1.00;;;;;;5029632;28;20192;-75
2023/01/24 04:16:57;;;;;;;13.20;7.83;;;4.60;1.00;;;;;;5024047;28;20202;-75
2023/01/24 04:19:23;;;;;;;10.87;7.00;;;4.60;1.00;;;;;;5027315;28;20174;-75
2023/01/24 04:21:48;;;;;;;12.07;6.90;;;4.60;1.00;;;;;;5029138;28;20244;-75
2023/01/24 04:24:14;;;;;;;12.37;7.30;;;4.70;1.00;;;;;;5028531;28;20555;-75
2023/01/24 04:26:39;;;;;;;9.70;6.60;;;4.70;1.00;;;;;;5029239;28;20243;-75
2023/01/24 04:29:05;;;;;;;10.73;7.00;;;4.70;1.00;;;;;;5030437;28;20193;-75
2023/01/24 04:31:30;;;;;;;10.17;6.97;;;4.70;1.00;;;;;;5026057;28;20280;-75
2023/01/24 04:33:56;;;;;;;11.60;7.40;;;4.60;1.00;;;;;;5030507;28;20182;-75
2023/01/24 04:36:21;;;;;;;11.63;7.07;;;4.60;1.00;;;;;;5027419;28;20284;-76
2023/01/24 04:38:47;;;;;;;11.77;7.43;;;4.60;1.00;;;;;;5029729;28;20236;-76
2023/01/24 04:41:13;;;;;;;11.03;6.97;;;4.70;1.00;;;;;;5029600;28;20741;-75
2023/01/24 04:43:40;;;;;;;11.30;7.50;;;5.10;1.00;;;;;;5029562;28;20548;-75
2023/01/24 04:46:05;;;;;;;10.00;6.90;;;4.60;1.00;;;;;;5027102;28;20498;-76
2023/01/24 04:48:31;;;;;;;10.70;6.70;;;4.60;1.00;;;;;;5029861;28;20914;-74
2023/01/24 04:51:00;;;;;;;12.43;7.33;;;4.70;1.00;;;;;;5030265;28;20205;-76
2023/01/24 04:53:28;;;;;;;12.73;7.40;;;4.60;1.00;;;;;;5028178;28;20193;-73
2023/01/24 04:55:54;;;;;;;10.07;6.30;;;4.50;1.00;;;;;;5028459;28;20471;-75
2023/01/24 04:58:20;;;;;;;12.57;7.53;;;4.60;1.00;;;;;;5028654;28;20432;-75
2023/01/24 05:00:47;;;;;;;11.23;7.47;;;4.60;1.00;;;;;;5028180;28;20181;-75
2023/01/24 05:03:13;;;;;;;11.57;7.00;;;4.60;1.00;;;;;;5026068;28;20193;-75
2023/01/24 05:05:38;;;;;;;12.93;7.27;;;4.60;1.00;;;;;;5029335;28;20433;-76
2023/01/24 05:08:04;;;;;;;10.80;7.07;;;4.60;1.00;;;;;;5027661;28;20251;-75
2023/01/24 05:10:29;;;;;;;12.07;7.50;;;4.60;1.00;;;;;;5024206;28;20213;-74
2023/01/24 05:12:55;;;;;;;11.63;7.43;;;4.70;1.00;;;;;;5027800;28;20684;-75
2023/01/24 05:15:22;;;;;;;12.23;7.80;;;4.70;1.00;;;;;;5029528;28;20208;-75
2023/01/24 05:17:48;;;;;;;13.90;7.30;;;4.70;1.00;;;;;;5022981;28;20186;-76
2023/01/24 05:20:13;;;;;;;11.30;7.77;;;4.80;1.00;;;;;;5029687;28;20431;-76
2023/01/24 05:22:39;;;;;;;12.70;7.63;;;4.70;1.00;;;;;;5025898;28;20201;-76
2023/01/24 05:25:05;;;;;;;14.70;8.40;;;4.70;1.00;;;;;;5029519;28;20205;-75
2023/01/24 05:27:30;;;;;;;11.97;7.80;;;4.80;1.00;;;;;;5027715;28;20213;-75
2023/01/24 05:29:56;;;;;;;11.90;7.77;;;4.90;1.00;;;;;;5029772;28;20953;-76
2023/01/24 05:32:22;;;;;;;15.17;8.10;;;4.80;1.00;;;;;;5026622;28;20197;-76
2023/01/24 05:34:47;;;;;;;11.80;7.10;;;4.80;1.00;;;;;;5028163;28;20236;-75
2023/01/24 05:37:14;;;;;;;12.47;7.23;;;4.90;1.00;;;;;;5027979;28;20246;-75
2023/01/24 05:39:39;;;;;;;12.03;8.07;;;4.90;1.00;;;;;;5027851;28;20432;-76
2023/01/24 05:42:04;;;;;;;16.37;9.00;;;4.80;1.00;;;;;;5027753;28;20221;-74
2023/01/24 05:44:30;;;;;;;15.13;8.00;;;4.90;1.00;;;;;;5027841;28;20652;-75
2023/01/24 05:46:55;;;;;;;11.97;7.50;;;4.80;1.00;;;;;;5027478;28;20186;-75
2023/01/24 05:49:21;;;;;;;13.13;7.90;;;4.80;1.00;;;;;;5028332;28;20353;-76
2023/01/24 05:51:47;;;;;;;14.53;8.13;;;4.80;1.00;;;;;;5030423;28;20271;-73
2023/01/24 05:54:12;;;;;;;19.60;12.47;;;4.80;1.00;;;;;;5026695;28;20188;-75
2023/01/24 05:56:38;;;;;;;36.87;22.13;;;4.80;1.00;;;;;;5023198;28;20746;-75
2023/01/24 05:59:03;;;;;;;41.30;24.60;;;5.20;1.00;;;;;;5029234;28;20567;-75
2023/01/24 06:01:29;;;;;;;24.27;13.67;;;4.80;1.00;;;;;;5029057;28;20206;-76
2023/01/24 06:03:54;;;;;;;16.37;9.47;;;4.80;1.00;;;;;;5027973;28;20177;-75
2023/01/24 06:06:22;;;;;;;13.80;9.00;;;4.90;1.00;;;;;;5027858;28;20177;-75
2023/01/24 06:08:49;;;;;;;17.57;10.30;;;4.90;1.00;;;;;;5028906;28;20182;-75
2023/01/24 06:11:20;;;;;;;14.80;9.07;;;4.90;1.00;;;;;;5027614;28;20459;-75
2023/01/24 06:13:46;;;;;;;14.70;8.47;;;4.90;1.00;;;;;;5027298;28;20479;-74
2023/01/24 06:16:21;;;;;;;13.37;8.40;;;4.80;1.00;;;;;;5026358;28;21016;-75
2023/01/24 06:18:48;;;;;;;14.10;8.30;;;4.90;1.00;;;;;;5028588;28;20436;-75
2023/01/24 06:21:46;;;;;;;17.37;10.30;;;4.80;1.00;;;;;;5026097;28;20448;-76
2023/01/24 06:24:18;;;;;;;15.03;9.47;;;4.80;1.00;;;;;;5012161;28;20448;-75
2023/01/24 06:26:45;;;;;;;14.57;8.23;;;4.70;1.00;;;;;;5028566;28;20497;-74
2023/01/24 06:29:12;;;;;;;12.70;8.40;;;4.70;1.00;;;;;;5025538;28;20479;-75
2023/01/24 06:31:55;;;;;;;14.97;8.77;;;4.70;1.00;;;;;;5035104;28;20828;-75
2023/01/24 06:34:39;;;;;;;17.83;9.50;;;4.70;1.00;;;;;;5033659;28;20558;-75
2023/01/24 06:37:32;;;;;;;17.40;9.30;;;4.80;1.00;;;;;;5021258;28;20815;-75
2023/01/24 06:39:58;;;;;;;21.23;10.57;;;4.80;1.00;;;;;;5029707;28;20455;-75
2023/01/24 06:42:24;;;;;;;15.37;9.60;;;4.70;1.00;;;;;;5030988;28;20502;-75
2023/01/24 06:44:49;;;;;;;16.53;9.87;;;4.70;1.00;;;;;;5032193;28;20257;-75
2023/01/24 06:47:15;;;;;;;12.80;8.83;;;4.70;1.00;;;;;;5036396;28;20260;-75
2023/01/24 06:49:43;;;;;;;14.57;9.70;;;4.70;1.00;;;;;;5032664;28;20189;-75
2023/01/24 06:52:09;;;;;;;14.10;8.87;;;4.80;1.00;;;;;;5031764;28;20463;-75
2023/01/24 06:54:35;;;;;;;15.93;9.90;;;4.70;1.00;;;;;;5034520;28;20471;-73
2023/01/24 06:57:03;;;;;;;14.33;8.77;;;4.70;1.00;;;;;;5031836;28;20499;-76
2023/01/24 06:59:28;;;;;;;15.03;9.37;;;4.70;1.00;;;;;;5032159;28;20520;-75
2023/01/24 07:01:54;;;;;;;14.87;9.00;;;4.80;1.00;;;;;;5029132;28;20572;-75
2023/01/24 07:04:19;;;;;;;14.47;9.07;;;4.80;1.00;;;;;;5028148;28;20437;-76
2023/01/24 07:06:46;;;;;;;14.03;8.93;;;4.90;1.00;;;;;;5028491;28;20186;-75
2023/01/24 07:09:11;;;;;;;15.40;9.37;;;4.90;1.00;;;;;;5029215;28;20182;-75
2023/01/24 07:11:36;;;;;;;14.67;9.30;;;4.90;1.00;;;;;;5031221;28;20451;-75
2023/01/24 07:14:02;;;;;;;12.33;8.57;;;4.90;1.00;;;;;;5030354;28;20655;-75
2023/01/24 07:16:28;;;;;;;13.63;8.30;;;4.90;1.00;;;;;;5031386;28;20237;-75
2023/01/24 07:18:54;;;;;;;14.60;9.30;;;4.90;1.00;;;;;;5029922;28;20190;-75
2023/01/24 07:21:19;;;;;;;16.70;9.70;;;4.90;1.00;;;;;;5027474;28;20255;-76
2023/01/24 07:23:49;;;;;;;20.03;10.00;;;4.90;1.00;;;;;;5023232;28;20429;-73
2023/01/24 07:26:15;;;;;;;15.60;10.07;;;5.00;1.00;;;;;;5036523;28;20224;-73
2023/01/24 07:28:42;;;;;;;16.53;8.40;;;5.00;1.00;;;;;;5044917;28;20515;-74
2023/01/24 07:31:10;;;;;;;13.77;8.53;;;5.00;1.00;;;;;;5027230;28;20460;-74
2023/01/24 07:33:35;;;;;;;15.00;9.37;;;5.00;1.00;;;;;;5026784;28;20946;-73
2023/01/24 07:36:09;;;;;;;15.33;10.00;;;5.10;1.00;;;;;;5027922;28;20472;-75
2023/01/24 07:38:35;;;;;;;17.97;10.13;;;5.10;1.00;;;;;;5028030;28;20280;-75
2023/01/24 07:41:06;;;;;;;16.27;10.23;;;5.10;1.00;;;;;;5029705;28;20915;-74
2023/01/24 07:43:32;;;;;;;16.57;10.77;;;5.10;1.00;;;;;;5027129;28;20178;-75
2023/01/24 07:45:57;;;;;;;21.27;10.90;;;5.10;1.00;;;;;;5029637;28;20818;-74
2023/01/24 07:48:23;;;;;;;15.33;9.97;;;5.10;1.00;;;;;;5029638;28;20198;-76
2023/01/24 07:50:48;;;;;;;18.17;11.00;;;5.10;1.00;;;;;;5030713;28;20704;-75
2023/01/24 07:53:14;;;;;;;23.57;15.00;;;5.10;1.00;;;;;;5029276;28;20200;-75
2023/01/24 07:55:39;;;;;;;18.30;11.10;;;5.20;1.00;;;;;;5026344;28;20220;-74
2023/01/24 07:58:05;;;;;;;23.90;11.90;;;5.10;1.00;;;;;;5030362;28;20227;-75
2023/01/24 08:00:30;;;;;;;22.70;11.60;;;5.10;1.00;;;;;;5029432;28;20205;-75
2023/01/24 08:02:56;;;;;;;14.17;9.90;;;5.10;1.00;;;;;;5030422;28;20213;-75
2023/01/24 08:05:21;;;;;;;16.57;11.23;;;5.20;1.00;;;;;;5030240;28;20251;-75
2023/01/24 08:07:47;;;;;;;16.47;10.10;;;5.10;1.00;;;;;;5033176;28;20550;-74
2023/01/24 08:10:12;;;;;;;16.87;10.57;;;5.20;1.00;;;;;;5032788;28;20177;-75
2023/01/24 08:12:38;;;;;;;15.93;9.70;;;5.20;1.00;;;;;;5029412;28;20293;-73
2023/01/24 08:15:06;;;;;;;22.07;13.97;;;5.20;1.00;;;;;;5026946;28;20286;-75
2023/01/24 08:17:32;;;;;;;14.53;9.97;;;5.30;1.00;;;;;;5030749;28;20575;-76
2023/01/24 08:19:57;;;;;;;15.53;9.43;;;5.30;1.00;;;;;;5031371;28;20565;-74
2023/01/24 08:22:26;;;;;;;12.87;8.60;;;5.30;1.00;;;;;;5024918;28;20205;-76
2023/01/24 08:24:52;;;;;;;16.27;9.13;;;5.40;1.00;;;;;;5027180;28;20185;-73
2023/01/24 08:27:17;;;;;;;13.23;8.40;;;5.40;1.00;;;;;;5026424;28;20451;-73
2023/01/24 08:29:43;;;;;;;14.10;8.63;;;5.50;1.00;;;;;;5032667;28;20185;-74
2023/01/24 08:32:08;;;;;;;15.30;9.30;;;5.30;1.00;;;;;;5029529;28;20213;-75
2023/01/24 08:34:34;;;;;;;15.03;9.03;;;5.30;1.00;;;;;;5032577;28;20182;-74
2023/01/24 08:36:59;;;;;;;13.63;8.13;;;5.40;1.00;;;;;;5029748;28;20596;-74
2023/01/24 08:39:25;;;;;;;18.27;9.63;;;5.40;1.00;;;;;;5035676;28;20185;-76
2023/01/24 08:41:50;;;;;;;15.03;8.70;;;5.50;1.00;;;;;;5029740;28;20197;-75
2023/01/24 08:44:16;;;;;;;12.80;8.00;;;5.50;1.00;;;;;;5031051;28;20560;-75
2023/01/24 08:46:42;;;;;;;14.53;9.23;;;5.50;1.00;;;;;;5031651;28;20193;-74
2023/01/24 08:49:10;;;;;;;18.57;9.40;;;5.60;1.00;;;;;;5029085;28;20268;-75
2023/01/24 08:51:35;;;;;;;15.70;8.80;;;5.70;1.00;;;;;;5030051;28;20963;-75
2023/01/24 08:54:01;;;;;;;19.33;9.97;;;5.80;1.00;;;;;;5028227;28;20436;-74
2023/01/24 08:56:27;;;;;;;18.50;10.67;;;5.80;1.00;;;;;;5030227;28;20205;-75
2023/01/24 08:58:53;;;;;;;14.33;8.00;;;5.80;1.00;;;;;;5028045;28;20189;-75
2023/01/24 09:01:21;;;;;;;15.53;8.30;;;5.80;1.00;;;;;;5029250;28;20201;-75
2023/01/24 09:03:48;;;;;;;16.60;9.40;;;5.80;1.00;;;;;;5029756;28;20424;-76
2023/01/24 09:06:14;;;;;;;14.87;9.33;;;5.70;1.00;;;;;;5027660;28;20463;-75
2023/01/24 09:08:40;;;;;;;17.10;9.10;;;5.80;1.00;;;;;;5030375;28;20945;-76
2023/01/24 09:11:05;;;;;;;12.90;8.60;;;5.80;1.00;;;;;;5028241;28;20201;-76
2023/01/24 09:13:31;;;;;;;16.93;9.30;;;5.90;1.00;;;;;;5029350;28;20331;-76
2023/01/24 09:16:00;;;;;;;16.90;9.00;;;6.00;1.00;;;;;;5026361;28;20197;-75
2023/01/24 09:18:25;;;;;;;17.53;9.83;;;6.10;1.00;;;;;;5026885;28;20725;-73
2023/01/24 09:20:51;;;;;;;14.87;9.60;;;6.20;1.00;;;;;;5028336;28;20455;-76
2023/01/24 09:23:16;;;;;;;16.20;9.50;;;6.10;1.00;;;;;;5030162;28;20178;-76
2023/01/24 09:25:49;;;;;;;13.83;8.50;;;6.00;1.00;;;;;;5027682;28;20181;-74
2023/01/24 09:28:15;;;;;;;14.47;8.97;;;6.00;1.00;;;;;;5025340;28;20315;-75
2023/01/24 09:30:41;;;;;;;13.80;8.50;;;5.90;1.00;;;;;;5028549;28;20600;-75
2023/01/24 09:33:07;;;;;;;13.50;8.60;;;5.90;1.00;;;;;;5025162;28;20475;-76
2023/01/24 09:35:32;;;;;;;13.57;8.03;;;6.00;1.00;;;;;;5027625;28;20198;-75
2023/01/24 09:37:58;;;;;;;14.83;8.80;;;6.00;1.00;;;;;;5028360;28;20220;-76
2023/01/24 09:40:27;;;;;;;16.87;8.70;;;6.00;1.00;;;;;;5027669;28;20625;-75
2023/01/24 09:42:59;;;;;;;11.83;7.70;;;5.90;1.00;;;;;;5025230;28;20202;-76
2023/01/24 09:45:35;;;;;;;13.63;8.80;;;5.90;1.00;;;;;;5020919;28;20977;-75
2023/01/24 09:48:04;;;;;;;13.67;7.90;;;6.00;1.00;;;;;;5027616;28;20438;-78
2023/01/24 09:50:44;;;;;;;14.63;8.67;;;6.00;1.00;;;;;;5025369;28;20530;-75
2023/01/24 09:53:21;;;;;;;14.17;8.93;;;6.00;1.00;;;;;;5025727;28;20513;-76
2023/01/24 09:55:47;;;;;;;13.10;8.17;;;5.90;1.00;;;;;;5025737;28;20513;-77
2023/01/24 09:58:33;;;;;;;16.60;8.77;;;5.90;1.00;;;;;;5025778;28;20441;-74
2023/01/24 10:01:01;;;;;;;18.27;8.83;;;6.10;1.00;;;;;;5027295;28;20938;-75
2023/01/24 10:03:27;;;;;;;17.90;8.70;;;6.20;1.00;;;;;;5024030;28;20447;-75
2023/01/24 10:05:55;;;;;;;15.47;8.80;;;6.10;1.00;;;;;;5024152;28;20443;-75
2023/01/24 10:08:37;;;;;;;14.57;8.97;;;6.10;1.00;;;;;;5038218;28;20529;-75
2023/01/24 10:11:23;;;;;;;11.00;7.70;;;6.10;1.00;;;;;;5026314;28;20444;-75
2023/01/24 10:14:23;;;;;;;14.67;8.80;;;6.20;1.00;;;;;;5023720;28;20440;-74
2023/01/24 10:17:00;;;;;;;13.70;8.27;;;6.30;1.00;;;;;;5046980;28;20464;-75
2023/01/24 10:19:53;;;;;;;13.60;7.80;;;6.30;1.00;;;;;;5025621;28;20447;-75
2023/01/24 10:22:49;;;;;;;14.37;9.63;;;6.20;1.00;;;;;;5024296;28;20464;-75
2023/01/24 10:25:41;;;;;;;14.73;8.60;;;6.30;1.00;;;;;;5025636;28;20551;-74
2023/01/24 10:28:18;;;;;;;13.23;8.27;;;6.30;1.00;;;;;;5013816;28;20523;-76
2023/01/24 10:30:57;;;;;;;14.30;9.77;;;6.30;1.00;;;;;;5030944;28;20451;-74
2023/01/24 10:33:29;;;;;;;15.53;9.90;;;6.40;1.00;;;;;;5023683;28;20450;-76
2023/01/24 10:36:19;;;;;;;11.77;8.17;;;6.50;1.00;;;;;;5040522;28;20456;-74
2023/01/24 10:38:45;;;;;;;14.17;9.17;;;6.50;1.00;;;;;;5032240;28;20925;-75
2023/01/24 10:41:15;;;;;;;13.77;8.30;;;6.50;1.00;;;;;;5028846;28;20459;-75
2023/01/24 10:43:44;;;;;;;12.40;7.50;;;6.50;1.00;;;;;;5032362;28;20660;-75
2023/01/24 10:46:53;;;;;;;11.43;7.70;;;6.50;1.00;;;;;;5033956;28;20544;-75
2023/01/24 10:49:25;;;;;;;10.57;7.00;;;6.60;1.00;;;;;;5025863;28;21013;-74
2023/01/24 10:52:12;;;;;;;12.17;8.17;;;6.70;1.00;;;;;;5030419;28;20451;-74
2023/01/24 10:54:53;;;;;;;13.80;7.87;;;6.70;1.00;;;;;;5033054;28;20470;-75
2023/01/24 10:57:21;;;;;;;13.30;8.20;;;6.80;1.00;;;;;;5031405;28;20889;-76
2023/01/24 10:59:47;;;;;;;11.70;7.70;;;6.70;1.00;;;;;;5030689;28;20448;-75
2023/01/24 11:02:22;;;;;;;12.00;7.90;;;6.70;1.00;;;;;;5044382;28;20456;-75
2023/01/24 11:04:58;;;;;;;13.53;8.40;;;6.80;1.00;;;;;;5031905;28;20451;-73
2023/01/24 11:07:33;;;;;;;13.83;8.60;;;6.80;1.00;;;;;;5024977;28;20546;-74
2023/01/24 11:10:00;;;;;;;14.33;7.93;;;6.80;1.00;;;;;;5029891;28;20542;-76
2023/01/24 11:12:27;;;;;;;13.63;9.23;;;6.80;1.00;;;;;;5032889;28;20464;-75
2023/01/24 11:14:52;;;;;;;10.40;7.10;;;6.80;1.00;;;;;;5033140;28;20442;-74
2023/01/24 11:17:36;;;;;;;14.97;8.40;;;6.90;1.00;;;;;;5029880;28;20476;-75
2023/01/24 11:20:21;;;;;;;15.30;8.10;;;6.90;1.00;;;;;;5030656;28;20186;-74
2023/01/24 11:22:50;;;;;;;10.87;7.37;;;6.90;1.00;;;;;;5031939;28;20467;-76
2023/01/24 11:25:15;;;;;;;13.30;8.50;;;7.00;1.00;;;;;;5026294;28;20436;-75
2023/01/24 11:27:48;;;;;;;12.20;7.23;;;7.10;1.00;;;;;;5029393;28;20692;-75
2023/01/24 11:30:20;;;;;;;14.00;7.90;;;6.90;1.00;;;;;;5031373;28;20533;-75
2023/01/24 11:33:05;;;;;;;10.73;7.60;;;6.90;1.00;;;;;;5029911;28;20951;-75
2023/01/24 11:35:37;;;;;;;16.93;7.77;;;6.90;1.00;;;;;;5030142;28;20456;-75
2023/01/24 11:38:11;;;;;;;12.50;7.80;;;6.80;1.00;;;;;;5028084;28;20440;-76
2023/01/24 11:40:46;;;;;;;13.40;7.40;;;6.80;1.00;;;;;;5028335;28;20440;-76
2023/01/24 11:43:41;;;;;;;13.80;7.83;;;6.70;1.00;;;;;;5029347;28;20446;-76
2023/01/24 11:46:39;;;;;;;11.23;7.87;;;6.60;1.00;;;;;;5028345;28;20440;-75
2023/01/24 11:49:18;;;;;;;9.53;6.50;;;6.70;1.00;;;;;;5029120;28;20459;-75
2023/01/24 11:52:01;;;;;;;11.50;7.37;;;6.70;1.00;;;;;;5030233;28;20472;-74
2023/01/24 11:54:32;;;;;;;12.40;7.20;;;6.70;1.00;;;;;;5036199;28;20444;-76
2023/01/24 11:57:00;;;;;;;13.20;6.93;;;6.60;1.00;;;;;;5028532;28;20476;-75
2023/01/24 11:59:26;;;;;;;17.60;8.37;;;6.60;1.00;;;;;;5025864;28;20800;-75
2023/01/24 12:02:03;;;;;;;12.37;7.47;;;6.70;1.00;;;;;;5028047;28;20460;-74
2023/01/24 12:04:32;;;;;;;11.00;7.27;;;6.70;1.00;;;;;;5029789;28;20713;-75
2023/01/24 12:07:18;;;;;;;12.83;6.53;;;6.70;1.00;;;;;;5027739;28;20467;-76
2023/01/24 12:10:19;;;;;;;10.67;6.93;;;6.70;1.00;;;;;;5031753;28;20431;-75
2023/01/24 12:12:51;;;;;;;10.83;6.73;;;6.70;1.00;;;;;;5028656;28;20457;-75
2023/01/24 12:15:32;;;;;;;16.30;8.20;;;6.80;1.00;;;;;;5036496;28;20425;-75
2023/01/24 12:18:14;;;;;;;16.07;9.10;;;6.80;1.00;;;;;;5027186;28;20859;-75
2023/01/24 12:20:56;;;;;;;14.67;8.90;;;6.90;1.00;;;;;;5031746;28;21045;-75
2023/01/24 12:23:40;;;;;;;13.93;8.10;;;6.90;1.00;;;;;;5028572;28;20436;-75
2023/01/24 12:26:20;;;;;;;12.47;7.23;;;7.00;1.00;;;;;;5040194;28;20439;-75
2023/01/24 12:29:03;;;;;;;14.47;8.70;;;7.10;1.00;;;;;;5043384;28;20476;-76
2023/01/24 12:31:51;;;;;;;13.07;8.23;;;7.00;1.00;;;;;;5031173;28;20823;-76
2023/01/24 12:34:34;;;;;;;14.40;9.27;;;7.00;1.00;;;;;;5029629;28;20848;-76
2023/01/24 12:37:11;;;;;;;14.33;8.87;;;7.00;1.00;;;;;;5040479;28;20468;-75
2023/01/24 12:40:11;;;;;;;12.13;7.87;;;6.90;1.00;;;;;;5031539;28;20435;-75
2023/01/24 12:42:57;;;;;;;12.00;7.20;;;7.00;1.00;;;;;;5021053;28;20456;-75
2023/01/24 12:45:33;;;;;;;15.77;8.10;;;7.00;1.00;;;;;;5021706;28;20570;-75
2023/01/24 12:48:18;;;;;;;15.00;8.63;;;7.00;1.00;;;;;;5031173;28;20408;-76
2023/01/24 12:50:57;;;;;;;11.93;7.90;;;7.10;1.00;;;;;;5029276;28;21013;-76
2023/01/24 12:53:46;;;;;;;11.73;7.10;;;7.10;1.00;;;;;;5032655;28;20440;-75
2023/01/24 12:56:18;;;;;;;11.83;7.60;;;7.00;1.00;;;;;;5025954;28;20755;-75
2023/01/24 12:58:46;;;;;;;14.70;7.47;;;7.00;1.00;;;;;;5027943;28;20486;-75
2023/01/24 13:01:27;;;;;;;12.97;7.13;;;6.90;1.00;;;;;;5027977;28;20453;-77
2023/01/24 13:04:11;;;;;;;12.33;7.67;;;6.90;1.00;;;;;;5030391;28;20432;-76
2023/01/24 13:06:55;;;;;;;16.23;8.00;;;7.00;1.00;;;;;;5028685;28;20437;-76
2023/01/24 13:09:29;;;;;;;13.70;7.53;;;6.90;1.00;;;;;;5044486;28;20976;-77
2023/01/24 13:11:57;;;;;;;13.70;8.43;;;6.90;1.00;;;;;;5027670;28;20513;-75
2023/01/24 13:14:27;;;;;;;14.77;8.97;;;7.00;1.00;;;;;;5028541;28;20432;-75
2023/01/24 13:17:20;;;;;;;14.13;8.50;;;7.00;1.00;;;;;;5023994;28;20552;-77
2023/01/24 13:20:13;;;;;;;13.90;8.80;;;6.90;1.00;;;;;;5029798;28;20919;-76
2023/01/24 13:22:59;;;;;;;16.60;10.37;;;6.90;1.00;;;;;;5024816;28;21019;-75
2023/01/24 13:25:57;;;;;;;15.60;8.40;;;6.90;1.00;;;;;;5029671;28;20479;-77
2023/01/24 13:28:29;;;;;;;13.73;8.00;;;6.90;1.00;;;;;;5032845;28;20429;-75
2023/01/24 13:31:06;;;;;;;14.80;8.53;;;6.80;1.00;;;;;;5028899;28;20795;-76
2023/01/24 13:33:52;;;;;;;12.73;7.97;;;6.80;1.00;;;;;;5022740;28;20451;-77
2023/01/24 13:36:21;;;;;;;13.00;8.53;;;6.70;1.00;;;;;;5028618;28;20468;-77
2023/01/24 13:38:47;;;;;;;11.63;8.50;;;6.70;1.00;;;;;;5029223;28;20930;-77
2023/01/24 13:41:35;;;;;;;10.83;7.57;;;6.70;1.00;;;;;;5025979;28;21009;-76
2023/01/24 13:44:06;;;;;;;14.23;7.83;;;6.60;1.00;;;;;;5029621;28;20736;-75
2023/01/24 13:46:46;;;;;;;11.87;7.93;;;6.60;1.00;;;;;;5030180;28;20440;-76
2023/01/24 13:49:17;;;;;;;12.47;7.50;;;6.60;1.00;;;;;;5027544;28;20623;-76
2023/01/24 13:51:48;;;;;;;16.33;8.80;;;6.70;1.00;;;;;;5028092;28;20535;-76
2023/01/24 13:54:41;;;;;;;17.57;8.67;;;6.70;1.00;;;;;;5028832;28;20440;-76